sensor_id;sensor_type;location;lat;lon;timestamp;temperature;humidity
8188;DHT22;4135;49.184;9.722;2022-08-21T00:02:23;22.80;68.00
8188;DHT22;4135;49.184;9.722;2022-08-21T00:04:54;22.80;67.80
8188;DHT22;4135;49.184;9.722;2022-08-21T00:07:25;22.80;67.70
8188;DHT22;4135;49.184;9.722;2022-08-21T00:09:55;22.80;67.60
8188;DHT22;4135;49.184;9.722;2022-08-21T00:12:24;22.80;67.50
8188;DHT22;4135;49.184;9.722;2022-08-21T00:14:54;22.80;67.30
8188;DHT22;4135;49.184;9.722;2022-08-21T00:17:24;22.80;67.30
8188;DHT22;4135;49.184;9.722;2022-08-21T00:19:54;22.70;67.10
8188;DHT22;4135;49.184;9.722;2022-08-21T00:22:23;22.70;67.00
8188;DHT22;4135;49.184;9.722;2022-08-21T00:24:53;22.70;67.00
8188;DHT22;4135;49.184;9.722;2022-08-21T00:27:23;22.70;66.90
8188;DHT22;4135;49.184;9.722;2022-08-21T00:29:52;22.70;66.90
8188;DHT22;4135;49.184;9.722;2022-08-21T00:32:24;22.70;66.80
8188;DHT22;4135;49.184;9.722;2022-08-21T00:34:54;22.70;66.70
8188;DHT22;4135;49.184;9.722;2022-08-21T00:37:24;22.70;66.50
8188;DHT22;4135;49.184;9.722;2022-08-21T00:39:54;22.70;66.50
8188;DHT22;4135;49.184;9.722;2022-08-21T00:42:23;22.70;66.40
8188;DHT22;4135;49.184;9.722;2022-08-21T00:44:53;22.70;66.20
8188;DHT22;4135;49.184;9.722;2022-08-21T00:47:23;22.60;65.80
8188;DHT22;4135;49.184;9.722;2022-08-21T00:49:52;22.60;65.60
8188;DHT22;4135;49.184;9.722;2022-08-21T00:52:28;22.60;65.50
8188;DHT22;4135;49.184;9.722;2022-08-21T00:54:59;22.60;65.50
8188;DHT22;4135;49.184;9.722;2022-08-21T00:57:34;22.60;65.20
8188;DHT22;4135;49.184;9.722;2022-08-21T01:00:10;22.50;65.10
8188;DHT22;4135;49.184;9.722;2022-08-21T01:02:40;22.50;65.00
8188;DHT22;4135;49.184;9.722;2022-08-21T01:05:10;22.50;64.80
8188;DHT22;4135;49.184;9.722;2022-08-21T01:07:41;22.50;64.80
8188;DHT22;4135;49.184;9.722;2022-08-21T01:10:11;22.40;64.40
8188;DHT22;4135;49.184;9.722;2022-08-21T01:12:42;22.40;64.40
8188;DHT22;4135;49.184;9.722;2022-08-21T01:15:12;22.40;64.20
8188;DHT22;4135;49.184;9.722;2022-08-21T01:17:44;22.40;64.00
8188;DHT22;4135;49.184;9.722;2022-08-21T01:20:14;22.40;64.00
8188;DHT22;4135;49.184;9.722;2022-08-21T01:22:43;22.40;63.80
8188;DHT22;4135;49.184;9.722;2022-08-21T01:25:18;22.30;63.80
8188;DHT22;4135;49.184;9.722;2022-08-21T01:27:51;22.30;63.70
8188;DHT22;4135;49.184;9.722;2022-08-21T01:30:23;22.30;63.70
8188;DHT22;4135;49.184;9.722;2022-08-21T01:32:55;22.20;63.60
8188;DHT22;4135;49.184;9.722;2022-08-21T01:35:25;22.30;63.60
8188;DHT22;4135;49.184;9.722;2022-08-21T01:37:54;22.30;63.60
8188;DHT22;4135;49.184;9.722;2022-08-21T01:40:24;21.60;62.90
8188;DHT22;4135;49.184;9.722;2022-08-21T01:42:54;22.20;63.60
8188;DHT22;4135;49.184;9.722;2022-08-21T01:45:23;22.20;63.50
8188;DHT22;4135;49.184;9.722;2022-08-21T01:47:53;22.20;63.60
8188;DHT22;4135;49.184;9.722;2022-08-21T01:50:23;22.20;63.60
8188;DHT22;4135;49.184;9.722;2022-08-21T01:52:52;22.20;63.60
8188;DHT22;4135;49.184;9.722;2022-08-21T01:55:22;22.10;63.60
8188;DHT22;4135;49.184;9.722;2022-08-21T01:57:52;22.10;63.60
8188;DHT22;4135;49.184;9.722;2022-08-21T02:00:22;22.10;63.60
8188;DHT22;4135;49.184;9.722;2022-08-21T02:02:52;22.10;63.70
8188;DHT22;4135;49.184;9.722;2022-08-21T02:05:22;22.10;63.70
8188;DHT22;4135;49.184;9.722;2022-08-21T02:07:53;22.00;63.70
8188;DHT22;4135;49.184;9.722;2022-08-21T02:10:26;22.00;63.80
8188;DHT22;4135;49.184;9.722;2022-08-21T02:12:57;22.00;64.00
8188;DHT22;4135;49.184;9.722;2022-08-21T02:15:28;22.00;64.00
8188;DHT22;4135;49.184;9.722;2022-08-21T02:18:00;21.90;64.20
8188;DHT22;4135;49.184;9.722;2022-08-21T02:20:36;22.00;64.30
8188;DHT22;4135;49.184;9.722;2022-08-21T02:23:08;21.90;64.20
8188;DHT22;4135;49.184;9.722;2022-08-21T02:25:38;21.90;64.20
8188;DHT22;4135;49.184;9.722;2022-08-21T02:28:12;21.90;64.30
8188;DHT22;4135;49.184;9.722;2022-08-21T02:30:45;21.80;64.30
8188;DHT22;4135;49.184;9.722;2022-08-21T02:33:15;21.80;64.30
8188;DHT22;4135;49.184;9.722;2022-08-21T02:35:46;21.80;64.40
8188;DHT22;4135;49.184;9.722;2022-08-21T02:38:20;21.80;64.40
8188;DHT22;4135;49.184;9.722;2022-08-21T02:40:52;21.80;64.40
8188;DHT22;4135;49.184;9.722;2022-08-21T02:43:23;21.80;64.50
8188;DHT22;4135;49.184;9.722;2022-08-21T02:45:54;21.70;64.50
8188;DHT22;4135;49.184;9.722;2022-08-21T02:48:27;21.70;64.50
8188;DHT22;4135;49.184;9.722;2022-08-21T02:51:06;21.70;64.60
8188;DHT22;4135;49.184;9.722;2022-08-21T02:53:36;21.80;64.70
8188;DHT22;4135;49.184;9.722;2022-08-21T02:56:09;21.70;64.60
8188;DHT22;4135;49.184;9.722;2022-08-21T02:58:43;21.70;64.60
8188;DHT22;4135;49.184;9.722;2022-08-21T03:01:14;21.70;64.60
8188;DHT22;4135;49.184;9.722;2022-08-21T03:03:46;21.70;64.60
8188;DHT22;4135;49.184;9.722;2022-08-21T03:06:18;21.70;64.70
8188;DHT22;4135;49.184;9.722;2022-08-21T03:08:48;21.70;64.70
8188;DHT22;4135;49.184;9.722;2022-08-21T03:11:18;21.70;64.70
8188;DHT22;4135;49.184;9.722;2022-08-21T03:13:49;21.60;65.30
8188;DHT22;4135;49.184;9.722;2022-08-21T03:16:19;21.60;64.70
8188;DHT22;4135;49.184;9.722;2022-08-21T03:18:49;21.50;64.80
8188;DHT22;4135;49.184;9.722;2022-08-21T03:21:19;21.50;64.90
8188;DHT22;4135;49.184;9.722;2022-08-21T03:23:48;21.40;65.00
8188;DHT22;4135;49.184;9.722;2022-08-21T03:26:18;21.40;65.10
8188;DHT22;4135;49.184;9.722;2022-08-21T03:28:47;21.40;65.10
8188;DHT22;4135;49.184;9.722;2022-08-21T03:31:17;21.40;65.20
8188;DHT22;4135;49.184;9.722;2022-08-21T03:33:47;21.30;65.20
8188;DHT22;4135;49.184;9.722;2022-08-21T03:36:17;21.30;65.30
8188;DHT22;4135;49.184;9.722;2022-08-21T03:38:47;21.30;65.30
8188;DHT22;4135;49.184;9.722;2022-08-21T03:41:16;21.30;65.50
8188;DHT22;4135;49.184;9.722;2022-08-21T03:43:46;21.20;65.50
8188;DHT22;4135;49.184;9.722;2022-08-21T03:46:15;21.20;65.50
8188;DHT22;4135;49.184;9.722;2022-08-21T03:48:45;21.20;65.60
8188;DHT22;4135;49.184;9.722;2022-08-21T03:51:14;21.20;65.60
8188;DHT22;4135;49.184;9.722;2022-08-21T03:53:44;21.10;65.50
8188;DHT22;4135;49.184;9.722;2022-08-21T03:56:14;21.10;65.50
8188;DHT22;4135;49.184;9.722;2022-08-21T03:58:45;21.10;65.50
8188;DHT22;4135;49.184;9.722;2022-08-21T04:01:15;21.10;65.50
8188;DHT22;4135;49.184;9.722;2022-08-21T04:03:44;21.20;65.60
8188;DHT22;4135;49.184;9.722;2022-08-21T04:06:14;21.10;65.60
8188;DHT22;4135;49.184;9.722;2022-08-21T04:08:43;21.10;65.70
8188;DHT22;4135;49.184;9.722;2022-08-21T04:11:13;21.10;65.70
8188;DHT22;4135;49.184;9.722;2022-08-21T04:13:44;21.00;65.70
8188;DHT22;4135;49.184;9.722;2022-08-21T04:16:14;21.00;65.80
8188;DHT22;4135;49.184;9.722;2022-08-21T04:18:43;21.00;65.90
8188;DHT22;4135;49.184;9.722;2022-08-21T04:21:13;20.90;65.90
8188;DHT22;4135;49.184;9.722;2022-08-21T04:23:42;20.90;66.00
8188;DHT22;4135;49.184;9.722;2022-08-21T04:26:12;20.90;66.00
8188;DHT22;4135;49.184;9.722;2022-08-21T04:28:41;20.90;66.10
8188;DHT22;4135;49.184;9.722;2022-08-21T04:31:11;20.80;66.10
8188;DHT22;4135;49.184;9.722;2022-08-21T04:33:41;20.80;66.20
8188;DHT22;4135;49.184;9.722;2022-08-21T04:36:11;20.80;66.30
8188;DHT22;4135;49.184;9.722;2022-08-21T04:38:40;20.80;66.20
8188;DHT22;4135;49.184;9.722;2022-08-21T04:41:10;20.90;66.30
8188;DHT22;4135;49.184;9.722;2022-08-21T04:43:40;20.90;66.30
8188;DHT22;4135;49.184;9.722;2022-08-21T04:46:10;20.80;66.20
8188;DHT22;4135;49.184;9.722;2022-08-21T04:48:40;20.80;66.30
8188;DHT22;4135;49.184;9.722;2022-08-21T04:51:19;20.80;66.30
8188;DHT22;4135;49.184;9.722;2022-08-21T04:53:55;20.80;66.30
8188;DHT22;4135;49.184;9.722;2022-08-21T04:56:32;20.80;66.30
8188;DHT22;4135;49.184;9.722;2022-08-21T04:59:07;20.80;66.20
8188;DHT22;4135;49.184;9.722;2022-08-21T05:01:40;20.80;66.20
8188;DHT22;4135;49.184;9.722;2022-08-21T05:04:13;20.80;66.20
8188;DHT22;4135;49.184;9.722;2022-08-21T05:06:45;20.80;66.30
8188;DHT22;4135;49.184;9.722;2022-08-21T05:09:17;20.80;66.30
8188;DHT22;4135;49.184;9.722;2022-08-21T05:11:48;20.70;66.30
8188;DHT22;4135;49.184;9.722;2022-08-21T05:14:18;20.80;66.40
8188;DHT22;4135;49.184;9.722;2022-08-21T05:16:48;20.80;66.50
8188;DHT22;4135;49.184;9.722;2022-08-21T05:19:18;20.70;66.40
8188;DHT22;4135;49.184;9.722;2022-08-21T05:21:47;20.70;66.50
8188;DHT22;4135;49.184;9.722;2022-08-21T05:24:17;20.80;66.70
8188;DHT22;4135;49.184;9.722;2022-08-21T05:26:47;20.70;66.70
8188;DHT22;4135;49.184;9.722;2022-08-21T05:29:17;20.70;66.70
8188;DHT22;4135;49.184;9.722;2022-08-21T05:31:47;20.70;66.80
8188;DHT22;4135;49.184;9.722;2022-08-21T05:34:21;20.70;66.90
8188;DHT22;4135;49.184;9.722;2022-08-21T05:36:51;20.80;67.00
8188;DHT22;4135;49.184;9.722;2022-08-21T05:39:21;20.80;67.00
8188;DHT22;4135;49.184;9.722;2022-08-21T05:41:50;20.80;67.10
8188;DHT22;4135;49.184;9.722;2022-08-21T05:44:20;20.80;67.00
8188;DHT22;4135;49.184;9.722;2022-08-21T05:46:49;20.80;66.90
8188;DHT22;4135;49.184;9.722;2022-08-21T05:49:19;20.80;66.90
8188;DHT22;4135;49.184;9.722;2022-08-21T05:51:48;20.80;67.00
8188;DHT22;4135;49.184;9.722;2022-08-21T05:54:18;20.90;67.10
8188;DHT22;4135;49.184;9.722;2022-08-21T05:56:48;20.90;67.10
8188;DHT22;4135;49.184;9.722;2022-08-21T05:59:18;20.90;67.20
8188;DHT22;4135;49.184;9.722;2022-08-21T06:01:47;20.90;67.10
8188;DHT22;4135;49.184;9.722;2022-08-21T06:04:17;20.90;67.00
8188;DHT22;4135;49.184;9.722;2022-08-21T06:06:46;21.00;66.90
8188;DHT22;4135;49.184;9.722;2022-08-21T06:09:16;21.00;66.90
8188;DHT22;4135;49.184;9.722;2022-08-21T06:11:46;21.00;66.80
8188;DHT22;4135;49.184;9.722;2022-08-21T06:14:16;21.10;67.00
8188;DHT22;4135;49.184;9.722;2022-08-21T06:16:45;21.10;66.90
8188;DHT22;4135;49.184;9.722;2022-08-21T06:19:15;21.10;66.80
8188;DHT22;4135;49.184;9.722;2022-08-21T06:21:44;21.10;66.90
8188;DHT22;4135;49.184;9.722;2022-08-21T06:24:14;21.10;66.90
8188;DHT22;4135;49.184;9.722;2022-08-21T06:26:43;21.10;66.90
8188;DHT22;4135;49.184;9.722;2022-08-21T06:29:13;21.20;67.00
8188;DHT22;4135;49.184;9.722;2022-08-21T06:31:48;21.20;67.00
8188;DHT22;4135;49.184;9.722;2022-08-21T06:34:17;21.20;67.50
8188;DHT22;4135;49.184;9.722;2022-08-21T06:36:47;21.20;67.60
8188;DHT22;4135;49.184;9.722;2022-08-21T06:39:17;21.30;68.60
8188;DHT22;4135;49.184;9.722;2022-08-21T06:41:47;21.30;67.80
8188;DHT22;4135;49.184;9.722;2022-08-21T06:44:16;21.30;68.10
8188;DHT22;4135;49.184;9.722;2022-08-21T06:46:47;21.30;68.30
8188;DHT22;4135;49.184;9.722;2022-08-21T06:49:16;21.30;68.70
8188;DHT22;4135;49.184;9.722;2022-08-21T06:51:46;21.40;69.00
8188;DHT22;4135;49.184;9.722;2022-08-21T06:54:15;21.40;68.80
8188;DHT22;4135;49.184;9.722;2022-08-21T06:56:45;21.40;68.80
8188;DHT22;4135;49.184;9.722;2022-08-21T06:59:14;21.40;68.80
8188;DHT22;4135;49.184;9.722;2022-08-21T07:01:44;21.40;69.10
8188;DHT22;4135;49.184;9.722;2022-08-21T07:04:14;21.40;69.00
8188;DHT22;4135;49.184;9.722;2022-08-21T07:06:43;21.50;68.80
8188;DHT22;4135;49.184;9.722;2022-08-21T07:09:13;21.50;68.80
8188;DHT22;4135;49.184;9.722;2022-08-21T07:11:44;21.40;68.60
8188;DHT22;4135;49.184;9.722;2022-08-21T07:14:15;21.40;68.50
8188;DHT22;4135;49.184;9.722;2022-08-21T07:16:44;21.50;69.00
8188;DHT22;4135;49.184;9.722;2022-08-21T07:19:14;21.50;69.50
8188;DHT22;4135;49.184;9.722;2022-08-21T07:21:44;21.50;73.00
8188;DHT22;4135;49.184;9.722;2022-08-21T07:24:14;21.60;77.90
8188;DHT22;4135;49.184;9.722;2022-08-21T07:26:43;21.60;79.10
8188;DHT22;4135;49.184;9.722;2022-08-21T07:29:13;21.70;77.20
8188;DHT22;4135;49.184;9.722;2022-08-21T07:31:42;21.70;79.20
8188;DHT22;4135;49.184;9.722;2022-08-21T07:34:12;21.70;77.70
8188;DHT22;4135;49.184;9.722;2022-08-21T07:36:42;21.70;77.70
8188;DHT22;4135;49.184;9.722;2022-08-21T07:39:12;21.70;78.30
8188;DHT22;4135;49.184;9.722;2022-08-21T07:41:41;21.70;77.60
8188;DHT22;4135;49.184;9.722;2022-08-21T07:44:11;21.80;76.60
8188;DHT22;4135;49.184;9.722;2022-08-21T07:46:40;21.80;77.40
8188;DHT22;4135;49.184;9.722;2022-08-21T07:49:10;21.80;77.30
8188;DHT22;4135;49.184;9.722;2022-08-21T07:51:39;21.80;76.90
8188;DHT22;4135;49.184;9.722;2022-08-21T07:54:09;21.90;76.80
8188;DHT22;4135;49.184;9.722;2022-08-21T07:56:38;21.90;76.80
8188;DHT22;4135;49.184;9.722;2022-08-21T07:59:08;21.90;76.00
8188;DHT22;4135;49.184;9.722;2022-08-21T08:01:37;21.90;76.30
8188;DHT22;4135;49.184;9.722;2022-08-21T08:04:07;21.90;76.20
8188;DHT22;4135;49.184;9.722;2022-08-21T08:06:36;21.90;76.50
8188;DHT22;4135;49.184;9.722;2022-08-21T08:09:06;21.90;77.00
8188;DHT22;4135;49.184;9.722;2022-08-21T08:11:37;21.90;75.60
8188;DHT22;4135;49.184;9.722;2022-08-21T08:14:08;22.00;76.20
8188;DHT22;4135;49.184;9.722;2022-08-21T08:16:37;22.00;75.60
8188;DHT22;4135;49.184;9.722;2022-08-21T08:19:07;22.00;75.40
8188;DHT22;4135;49.184;9.722;2022-08-21T08:21:36;22.00;74.80
8188;DHT22;4135;49.184;9.722;2022-08-21T08:24:07;22.10;75.30
8188;DHT22;4135;49.184;9.722;2022-08-21T08:26:37;22.10;75.00
8188;DHT22;4135;49.184;9.722;2022-08-21T08:29:06;22.10;75.10
8188;DHT22;4135;49.184;9.722;2022-08-21T08:31:36;22.10;74.50
8188;DHT22;4135;49.184;9.722;2022-08-21T08:34:05;22.10;74.40
8188;DHT22;4135;49.184;9.722;2022-08-21T08:36:36;22.20;74.10
8188;DHT22;4135;49.184;9.722;2022-08-21T08:39:06;22.20;73.90
8188;DHT22;4135;49.184;9.722;2022-08-21T08:41:36;22.20;73.70
8188;DHT22;4135;49.184;9.722;2022-08-21T08:44:06;22.20;73.80
8188;DHT22;4135;49.184;9.722;2022-08-21T08:46:48;22.20;73.50
8188;DHT22;4135;49.184;9.722;2022-08-21T08:50:11;22.30;73.60
8188;DHT22;4135;49.184;9.722;2022-08-21T08:52:28;22.30;73.40
8188;DHT22;4135;49.184;9.722;2022-08-21T08:55:08;22.30;73.50
8188;DHT22;4135;49.184;9.722;2022-08-21T08:57:41;22.30;73.60
8188;DHT22;4135;49.184;9.722;2022-08-21T09:00:14;22.40;73.60
8188;DHT22;4135;49.184;9.722;2022-08-21T09:02:45;22.40;73.60
8188;DHT22;4135;49.184;9.722;2022-08-21T09:05:25;22.40;73.50
8188;DHT22;4135;49.184;9.722;2022-08-21T09:11:10;22.40;73.50
8188;DHT22;4135;49.184;9.722;2022-08-21T09:22:43;22.50;73.80
8188;DHT22;4135;49.184;9.722;2022-08-21T09:25:21;22.50;73.60
8188;DHT22;4135;49.184;9.722;2022-08-21T09:27:52;22.60;73.50
8188;DHT22;4135;49.184;9.722;2022-08-21T09:30:31;22.60;73.80
8188;DHT22;4135;49.184;9.722;2022-08-21T09:33:01;22.60;73.60
8188;DHT22;4135;49.184;9.722;2022-08-21T09:35:31;22.60;73.80
8188;DHT22;4135;49.184;9.722;2022-08-21T09:38:05;22.60;73.50
8188;DHT22;4135;49.184;9.722;2022-08-21T09:40:43;22.70;73.60
8188;DHT22;4135;49.184;9.722;2022-08-21T09:45:45;22.70;73.20
8188;DHT22;4135;49.184;9.722;2022-08-21T09:48:19;22.70;73.20
8188;DHT22;4135;49.184;9.722;2022-08-21T09:50:50;22.70;72.90
8188;DHT22;4135;49.184;9.722;2022-08-21T09:53:23;22.70;73.00
8188;DHT22;4135;49.184;9.722;2022-08-21T09:55:57;22.70;72.80
8188;DHT22;4135;49.184;9.722;2022-08-21T09:58:48;22.70;72.70
8188;DHT22;4135;49.184;9.722;2022-08-21T10:01:21;22.80;72.70
8188;DHT22;4135;49.184;9.722;2022-08-21T10:04:26;22.80;72.30
8188;DHT22;4135;49.184;9.722;2022-08-21T10:07:13;22.80;71.90
8188;DHT22;4135;49.184;9.722;2022-08-21T10:09:43;22.80;71.80
8188;DHT22;4135;49.184;9.722;2022-08-21T10:12:21;22.90;72.60
8188;DHT22;4135;49.184;9.722;2022-08-21T10:15:17;22.90;71.70
8188;DHT22;4135;49.184;9.722;2022-08-21T10:17:53;22.90;71.50
8188;DHT22;4135;49.184;9.722;2022-08-21T10:20:52;22.90;70.80
8188;DHT22;4135;49.184;9.722;2022-08-21T10:35:03;23.00;69.60
8188;DHT22;4135;49.184;9.722;2022-08-21T10:42:57;23.10;68.50
8188;DHT22;4135;49.184;9.722;2022-08-21T10:45:47;23.10;68.30
8188;DHT22;4135;49.184;9.722;2022-08-21T10:48:40;23.10;68.50
8188;DHT22;4135;49.184;9.722;2022-08-21T10:51:15;23.10;67.90
8188;DHT22;4135;49.184;9.722;2022-08-21T10:56:41;23.20;67.30
8188;DHT22;4135;49.184;9.722;2022-08-21T11:01:56;23.20;67.30
8188;DHT22;4135;49.184;9.722;2022-08-21T11:04:32;23.20;67.10
8188;DHT22;4135;49.184;9.722;2022-08-21T11:07:15;23.30;66.50
8188;DHT22;4135;49.184;9.722;2022-08-21T11:09:48;23.30;66.40
8188;DHT22;4135;49.184;9.722;2022-08-21T11:12:31;23.30;66.40
8188;DHT22;4135;49.184;9.722;2022-08-21T11:17:52;23.40;65.80
8188;DHT22;4135;49.184;9.722;2022-08-21T11:20:38;23.40;66.20
8188;DHT22;4135;49.184;9.722;2022-08-21T11:23:28;23.40;65.70
8188;DHT22;4135;49.184;9.722;2022-08-21T11:26:13;23.40;65.20
8188;DHT22;4135;49.184;9.722;2022-08-21T11:28:54;23.50;65.60
8188;DHT22;4135;49.184;9.722;2022-08-21T11:34:35;23.50;65.40
8188;DHT22;4135;49.184;9.722;2022-08-21T11:37:44;23.50;64.80
8188;DHT22;4135;49.184;9.722;2022-08-21T11:40:44;23.50;64.80
8188;DHT22;4135;49.184;9.722;2022-08-21T11:46:26;23.60;64.80
8188;DHT22;4135;49.184;9.722;2022-08-21T11:52:21;23.60;64.90
8188;DHT22;4135;49.184;9.722;2022-08-21T11:55:00;23.70;64.30
8188;DHT22;4135;49.184;9.722;2022-08-21T11:57:51;23.70;64.50
8188;DHT22;4135;49.184;9.722;2022-08-21T12:03:13;23.70;64.40
8188;DHT22;4135;49.184;9.722;2022-08-21T12:06:01;23.80;64.30
8188;DHT22;4135;49.184;9.722;2022-08-21T12:14:12;23.80;63.60
8188;DHT22;4135;49.184;9.722;2022-08-21T12:16:48;23.90;63.40
8188;DHT22;4135;49.184;9.722;2022-08-21T12:19:28;23.90;63.60
8188;DHT22;4135;49.184;9.722;2022-08-21T12:30:01;24.00;62.30
8188;DHT22;4135;49.184;9.722;2022-08-21T12:32:44;24.00;63.20
8188;DHT22;4135;49.184;9.722;2022-08-21T12:35:21;24.00;63.60
8188;DHT22;4135;49.184;9.722;2022-08-21T12:38:17;24.10;64.00
8188;DHT22;4135;49.184;9.722;2022-08-21T12:43:38;24.10;63.70
8188;DHT22;4135;49.184;9.722;2022-08-21T12:46:27;24.10;63.30
8188;DHT22;4135;49.184;9.722;2022-08-21T12:49:26;24.10;62.90
8188;DHT22;4135;49.184;9.722;2022-08-21T12:52:19;24.20;62.40
8188;DHT22;4135;49.184;9.722;2022-08-21T12:54:49;24.20;61.60
8188;DHT22;4135;49.184;9.722;2022-08-21T12:57:26;24.20;61.60
8188;DHT22;4135;49.184;9.722;2022-08-21T13:00:02;24.20;61.60
8188;DHT22;4135;49.184;9.722;2022-08-21T13:02:43;24.30;61.20
8188;DHT22;4135;49.184;9.722;2022-08-21T13:05:31;24.30;61.10
8188;DHT22;4135;49.184;9.722;2022-08-21T13:08:06;24.30;60.80
8188;DHT22;4135;49.184;9.722;2022-08-21T13:10:37;24.30;60.60
8188;DHT22;4135;49.184;9.722;2022-08-21T13:13:20;24.30;60.60
8188;DHT22;4135;49.184;9.722;2022-08-21T13:16:03;24.40;59.90
8188;DHT22;4135;49.184;9.722;2022-08-21T13:18:52;24.40;59.60
8188;DHT22;4135;49.184;9.722;2022-08-21T13:21:32;24.40;59.20
8188;DHT22;4135;49.184;9.722;2022-08-21T13:24:18;24.40;59.20
8188;DHT22;4135;49.184;9.722;2022-08-21T13:26:48;24.40;59.30
8188;DHT22;4135;49.184;9.722;2022-08-21T13:29:21;24.40;59.20
8188;DHT22;4135;49.184;9.722;2022-08-21T13:31:56;24.50;59.00
8188;DHT22;4135;49.184;9.722;2022-08-21T13:34:30;24.50;58.70
8188;DHT22;4135;49.184;9.722;2022-08-21T13:37:04;24.50;58.90
8188;DHT22;4135;49.184;9.722;2022-08-21T13:39:34;24.50;59.20
8188;DHT22;4135;49.184;9.722;2022-08-21T13:42:10;24.60;58.40
8188;DHT22;4135;49.184;9.722;2022-08-21T13:44:45;24.60;57.60
8188;DHT22;4135;49.184;9.722;2022-08-21T13:47:16;24.60;58.00
8188;DHT22;4135;49.184;9.722;2022-08-21T13:49:47;24.60;58.00
8188;DHT22;4135;49.184;9.722;2022-08-21T13:52:22;24.60;58.20
8188;DHT22;4135;49.184;9.722;2022-08-21T13:54:59;24.60;59.00
8188;DHT22;4135;49.184;9.722;2022-08-21T13:57:33;24.60;58.70
8188;DHT22;4135;49.184;9.722;2022-08-21T14:00:19;24.60;58.60
8188;DHT22;4135;49.184;9.722;2022-08-21T14:02:51;24.60;58.20
8188;DHT22;4135;49.184;9.722;2022-08-21T14:05:28;24.70;58.00
8188;DHT22;4135;49.184;9.722;2022-08-21T14:08:12;24.70;57.30
8188;DHT22;4135;49.184;9.722;2022-08-21T14:10:46;24.70;57.20
8188;DHT22;4135;49.184;9.722;2022-08-21T14:16:23;24.70;57.50
8188;DHT22;4135;49.184;9.722;2022-08-21T14:24:24;24.80;57.90
8188;DHT22;4135;49.184;9.722;2022-08-21T14:29:26;24.90;58.30
8188;DHT22;4135;49.184;9.722;2022-08-21T14:31:59;24.90;58.80
8188;DHT22;4135;49.184;9.722;2022-08-21T14:34:29;24.90;58.80
8188;DHT22;4135;49.184;9.722;2022-08-21T14:36:58;24.90;58.70
8188;DHT22;4135;49.184;9.722;2022-08-21T14:39:28;24.90;58.50
8188;DHT22;4135;49.184;9.722;2022-08-21T14:41:58;24.90;58.30
8188;DHT22;4135;49.184;9.722;2022-08-21T14:44:28;24.90;57.70
8188;DHT22;4135;49.184;9.722;2022-08-21T14:46:58;24.90;57.90
8188;DHT22;4135;49.184;9.722;2022-08-21T14:49:28;25.00;58.00
8188;DHT22;4135;49.184;9.722;2022-08-21T14:51:58;25.00;57.90
8188;DHT22;4135;49.184;9.722;2022-08-21T14:54:29;25.00;57.40
8188;DHT22;4135;49.184;9.722;2022-08-21T14:57:04;25.00;57.80
8188;DHT22;4135;49.184;9.722;2022-08-21T14:59:34;25.00;57.80
8188;DHT22;4135;49.184;9.722;2022-08-21T15:02:05;25.00;57.90
8188;DHT22;4135;49.184;9.722;2022-08-21T15:04:35;25.00;57.90
8188;DHT22;4135;49.184;9.722;2022-08-21T15:07:04;25.00;57.50
8188;DHT22;4135;49.184;9.722;2022-08-21T15:09:34;25.00;57.40
8188;DHT22;4135;49.184;9.722;2022-08-21T15:12:04;24.90;57.10
8188;DHT22;4135;49.184;9.722;2022-08-21T15:14:38;25.10;57.40
8188;DHT22;4135;49.184;9.722;2022-08-21T15:17:10;25.10;56.90
8188;DHT22;4135;49.184;9.722;2022-08-21T15:19:39;25.10;57.10
8188;DHT22;4135;49.184;9.722;2022-08-21T15:22:09;25.10;57.10
8188;DHT22;4135;49.184;9.722;2022-08-21T15:24:39;25.10;57.70
8188;DHT22;4135;49.184;9.722;2022-08-21T15:27:09;25.10;58.10
8188;DHT22;4135;49.184;9.722;2022-08-21T15:29:39;25.10;58.40
8188;DHT22;4135;49.184;9.722;2022-08-21T15:32:25;25.10;58.10
8188;DHT22;4135;49.184;9.722;2022-08-21T15:34:56;25.10;57.60
8188;DHT22;4135;49.184;9.722;2022-08-21T15:37:26;25.10;55.90
8188;DHT22;4135;49.184;9.722;2022-08-21T15:39:55;25.10;55.70
8188;DHT22;4135;49.184;9.722;2022-08-21T15:42:26;25.10;56.70
8188;DHT22;4135;49.184;9.722;2022-08-21T15:44:57;25.10;56.80
8188;DHT22;4135;49.184;9.722;2022-08-21T15:47:35;25.10;56.80
8188;DHT22;4135;49.184;9.722;2022-08-21T15:50:08;25.10;56.70
8188;DHT22;4135;49.184;9.722;2022-08-21T15:52:38;25.10;56.70
8188;DHT22;4135;49.184;9.722;2022-08-21T15:55:08;25.10;56.80
8188;DHT22;4135;49.184;9.722;2022-08-21T15:57:43;25.10;56.80
8188;DHT22;4135;49.184;9.722;2022-08-21T16:00:16;25.10;56.70
8188;DHT22;4135;49.184;9.722;2022-08-21T16:02:49;25.10;56.70
8188;DHT22;4135;49.184;9.722;2022-08-21T16:05:21;25.10;56.80
8188;DHT22;4135;49.184;9.722;2022-08-21T16:07:51;25.20;57.00
8188;DHT22;4135;49.184;9.722;2022-08-21T16:10:23;25.10;56.60
8188;DHT22;4135;49.184;9.722;2022-08-21T16:12:57;25.20;56.80
8188;DHT22;4135;49.184;9.722;2022-08-21T16:15:27;25.20;56.80
8188;DHT22;4135;49.184;9.722;2022-08-21T16:17:57;25.20;56.60
8188;DHT22;4135;49.184;9.722;2022-08-21T16:20:28;25.20;56.00
8188;DHT22;4135;49.184;9.722;2022-08-21T16:22:58;25.20;55.20
8188;DHT22;4135;49.184;9.722;2022-08-21T16:25:27;25.30;55.90
8188;DHT22;4135;49.184;9.722;2022-08-21T16:27:59;25.30;55.80
8188;DHT22;4135;49.184;9.722;2022-08-21T16:30:30;25.30;55.60
8188;DHT22;4135;49.184;9.722;2022-08-21T16:33:03;25.30;56.40
8188;DHT22;4135;49.184;9.722;2022-08-21T16:35:33;25.30;55.70
8188;DHT22;4135;49.184;9.722;2022-08-21T16:38:03;25.30;55.80
8188;DHT22;4135;49.184;9.722;2022-08-21T16:40:32;25.30;55.30
8188;DHT22;4135;49.184;9.722;2022-08-21T16:43:02;25.30;55.60
8188;DHT22;4135;49.184;9.722;2022-08-21T16:45:32;25.30;55.90
8188;DHT22;4135;49.184;9.722;2022-08-21T16:48:01;25.30;56.10
8188;DHT22;4135;49.184;9.722;2022-08-21T16:50:32;25.30;56.00
8188;DHT22;4135;49.184;9.722;2022-08-21T16:53:03;25.30;55.60
8188;DHT22;4135;49.184;9.722;2022-08-21T16:55:35;25.30;55.70
8188;DHT22;4135;49.184;9.722;2022-08-21T16:58:11;25.30;55.50
8188;DHT22;4135;49.184;9.722;2022-08-21T17:00:43;25.30;55.70
8188;DHT22;4135;49.184;9.722;2022-08-21T17:03:15;25.30;55.50
8188;DHT22;4135;49.184;9.722;2022-08-21T17:05:46;25.40;56.00
8188;DHT22;4135;49.184;9.722;2022-08-21T17:08:16;25.40;55.60
8188;DHT22;4135;49.184;9.722;2022-08-21T17:10:48;25.40;55.80
8188;DHT22;4135;49.184;9.722;2022-08-21T17:13:18;25.40;55.10
8188;DHT22;4135;49.184;9.722;2022-08-21T17:15:48;25.40;55.40
8188;DHT22;4135;49.184;9.722;2022-08-21T17:18:20;25.40;55.50
8188;DHT22;4135;49.184;9.722;2022-08-21T17:20:50;25.40;55.30
8188;DHT22;4135;49.184;9.722;2022-08-21T17:23:20;25.50;55.60
8188;DHT22;4135;49.184;9.722;2022-08-21T17:25:51;25.40;55.80
8188;DHT22;4135;49.184;9.722;2022-08-21T17:28:25;25.40;55.90
8188;DHT22;4135;49.184;9.722;2022-08-21T17:30:57;25.40;55.00
8188;DHT22;4135;49.184;9.722;2022-08-21T17:33:31;25.40;55.00
8188;DHT22;4135;49.184;9.722;2022-08-21T17:36:02;25.40;53.20
8188;DHT22;4135;49.184;9.722;2022-08-21T17:38:32;25.40;51.70
8188;DHT22;4135;49.184;9.722;2022-08-21T17:41:02;25.40;49.40
8188;DHT22;4135;49.184;9.722;2022-08-21T17:43:32;25.40;50.50
8188;DHT22;4135;49.184;9.722;2022-08-21T17:46:01;25.30;51.70
8188;DHT22;4135;49.184;9.722;2022-08-21T17:48:31;25.30;52.60
8188;DHT22;4135;49.184;9.722;2022-08-21T17:51:00;25.30;53.00
8188;DHT22;4135;49.184;9.722;2022-08-21T17:53:30;25.30;53.10
8188;DHT22;4135;49.184;9.722;2022-08-21T17:56:00;25.30;52.80
8188;DHT22;4135;49.184;9.722;2022-08-21T17:58:29;25.30;52.90